Time;durP1;ratioP1;P1;durP2;ratioP2;P2;SDS_P1;SDS_P2;PMS_P1;PMS_P2;Temp;Humidity;BMP_temperature;BMP_pressure;BME280_temperature;BME280_humidity;BME280_pressure;Samples;Min_cycle;Max_cycle;Signal;HPM_P1;HPM_P2
2023/06/12 00:01:17;;;;;;;50.00;6.40;;;;;;;;;;5030289;28;20052;-71
2023/06/12 00:03:44;;;;;;;26.20;5.28;;;;;;;;;;5041367;28;20060;-67
2023/06/12 00:06:11;;;;;;;13.40;4.03;;;;;;;;;;5046233;28;20096;-67
2023/06/12 00:08:41;;;;;;;64.78;7.45;;;;;;;;;;5039960;28;20049;-68
2023/06/12 00:11:12;;;;;;;26.48;5.13;;;;;;;;;;5032885;28;20042;-67
2023/06/12 00:13:43;;;;;;;25.48;5.68;;;;;;;;;;5033656;28;20115;-68
2023/06/12 00:16:10;;;;;;;25.05;5.90;;;;;;;;;;5028017;28;20048;-68
2023/06/12 00:18:40;;;;;;;36.38;5.43;;;;;;;;;;5040149;28;20112;-68
2023/06/12 00:21:08;;;;;;;43.42;5.82;;;;;;;;;;5032447;28;20056;-68
2023/06/12 00:23:35;;;;;;;59.33;7.53;;;;;;;;;;5041694;28;20037;-68
2023/06/12 00:26:03;;;;;;;22.08;5.03;;;;;;;;;;5048098;28;20041;-68
2023/06/12 00:28:30;;;;;;;34.00;5.38;;;;;;;;;;5028113;28;20131;-69
2023/06/12 00:30:57;;;;;;;44.88;6.63;;;;;;;;;;5029329;28;20546;-68
2023/06/12 00:33:23;;;;;;;53.90;7.10;;;;;;;;;;5026715;28;20382;-68
2023/06/12 00:35:50;;;;;;;31.55;6.00;;;;;;;;;;5031594;28;20037;-68
2023/06/12 00:38:17;;;;;;;13.55;5.10;;;;;;;;;;5024200;28;20050;-70
2023/06/12 00:40:44;;;;;;;19.98;4.80;;;;;;;;;;5021677;28;20053;-69
2023/06/12 00:43:11;;;;;;;35.80;6.43;;;;;;;;;;5026525;28;20050;-69
2023/06/12 00:45:37;;;;;;;51.13;6.88;;;;;;;;;;5041626;28;20074;-68
2023/06/12 00:48:05;;;;;;;26.75;5.60;;;;;;;;;;5032856;28;20053;-69
2023/06/12 00:50:34;;;;;;;53.55;7.07;;;;;;;;;;5008324;28;20063;-68
2023/06/12 00:53:01;;;;;;;34.03;5.63;;;;;;;;;;5029529;28;20046;-68
2023/06/12 00:55:29;;;;;;;39.05;6.35;;;;;;;;;;5031304;28;20148;-68
2023/06/12 00:57:56;;;;;;;43.55;6.80;;;;;;;;;;5045502;28;20235;-67
2023/06/12 01:00:24;;;;;;;35.85;5.97;;;;;;;;;;5039798;28;20041;-68
2023/06/12 01:02:53;;;;;;;35.25;6.72;;;;;;;;;;5007497;28;20076;-67
2023/06/12 01:05:32;;;;;;;60.40;8.60;;;;;;;;;;5048137;28;20068;-68
2023/06/12 01:08:22;;;;;;;39.25;6.45;;;;;;;;;;5032072;28;20137;-67
2023/06/12 01:10:54;;;;;;;30.05;5.28;;;;;;;;;;5033528;28;20037;-69
2023/06/12 01:13:21;;;;;;;35.55;5.53;;;;;;;;;;5035768;28;20048;-67
2023/06/12 01:15:48;;;;;;;44.08;6.07;;;;;;;;;;5036304;28;20064;-68
2023/06/12 01:18:15;;;;;;;27.38;4.68;;;;;;;;;;5046543;28;20067;-69
2023/06/12 01:20:42;;;;;;;45.60;6.72;;;;;;;;;;5044285;28;20033;-67
2023/06/12 01:23:18;;;;;;;22.55;5.18;;;;;;;;;;5042767;28;20076;-69
2023/06/12 01:26:07;;;;;;;47.28;6.93;;;;;;;;;;5028330;28;20392;-68
2023/06/12 01:28:51;;;;;;;32.47;5.78;;;;;;;;;;5011996;28;20055;-68
2023/06/12 01:31:25;;;;;;;28.98;5.72;;;;;;;;;;5040997;28;20053;-68
2023/06/12 01:34:02;;;;;;;39.40;7.03;;;;;;;;;;5025862;28;20055;-68
2023/06/12 01:36:32;;;;;;;32.33;5.85;;;;;;;;;;5016308;28;20132;-68
2023/06/12 01:39:00;;;;;;;41.78;6.68;;;;;;;;;;5035113;28;20055;-69
2023/06/12 01:41:28;;;;;;;54.42;7.68;;;;;;;;;;5026221;28;20776;-68
2023/06/12 01:43:56;;;;;;;41.25;6.97;;;;;;;;;;5034452;28;20084;-68
2023/06/12 01:46:23;;;;;;;66.53;8.02;;;;;;;;;;5030515;28;20079;-68
2023/06/12 01:48:49;;;;;;;54.92;7.28;;;;;;;;;;5033111;28;20128;-69
2023/06/12 01:51:17;;;;;;;35.47;6.43;;;;;;;;;;5045148;28;20498;-68
2023/06/12 01:53:43;;;;;;;39.95;6.93;;;;;;;;;;5027219;28;20132;-68
2023/06/12 01:56:14;;;;;;;35.38;7.30;;;;;;;;;;5035392;28;20053;-68
2023/06/12 01:58:41;;;;;;;29.55;6.97;;;;;;;;;;5008200;28;20057;-67
2023/06/12 02:01:15;;;;;;;1999.90;642.75;;;;;;;;;;5006401;22;20654;-86
2023/06/12 02:03:45;;;;;;;1999.90;568.05;;;;;;;;;;4786806;28;20351;-85
2023/06/12 02:06:16;;;;;;;1999.90;582.58;;;;;;;;;;4624403;28;20179;-85
2023/06/12 02:08:45;;;;;;;1999.90;544.83;;;;;;;;;;4631897;28;20923;-85
2023/06/12 02:11:12;;;;;;;1999.90;559.30;;;;;;;;;;4633606;28;20041;-85
2023/06/12 02:13:40;;;;;;;1999.90;562.20;;;;;;;;;;4611620;28;20499;-85
2023/06/12 02:16:08;;;;;;;1999.90;560.15;;;;;;;;;;4603085;28;20772;-85
2023/06/12 02:18:34;;;;;;;1999.90;496.10;;;;;;;;;;4628182;28;20366;-85
2023/06/12 02:21:01;;;;;;;1999.90;566.40;;;;;;;;;;4627235;28;20494;-85
2023/06/12 02:23:28;;;;;;;1999.90;507.67;;;;;;;;;;4640538;28;20051;-85
2023/06/12 02:25:55;;;;;;;1999.90;536.90;;;;;;;;;;4627030;28;20289;-85
2023/06/12 02:28:22;;;;;;;1999.90;554.40;;;;;;;;;;4624628;28;20098;-85
2023/06/12 02:30:48;;;;;;;1999.90;545.25;;;;;;;;;;4620334;28;20679;-86
2023/06/12 02:33:16;;;;;;;1999.90;581.67;;;;;;;;;;4626095;28;20640;-85
2023/06/12 02:35:43;;;;;;;1999.90;566.97;;;;;;;;;;4660212;28;20402;-85
2023/06/12 02:38:11;;;;;;;1999.90;556.88;;;;;;;;;;4624728;28;20464;-85
2023/06/12 02:40:38;;;;;;;1999.90;538.15;;;;;;;;;;4618407;28;20043;-85
2023/06/12 02:43:06;;;;;;;1999.90;557.83;;;;;;;;;;4621390;28;20071;-84
2023/06/12 02:45:33;;;;;;;1999.90;537.90;;;;;;;;;;4624398;28;20114;-84
2023/06/12 02:48:00;;;;;;;1999.90;539.33;;;;;;;;;;4614359;28;20712;-85
2023/06/12 02:50:29;;;;;;;1999.90;550.92;;;;;;;;;;4641904;28;20618;-85
2023/06/12 02:53:00;;;;;;;1999.90;563.45;;;;;;;;;;4607400;28;20735;-85
2023/06/12 02:55:28;;;;;;;1999.90;541.80;;;;;;;;;;4624604;28;20044;-85
2023/06/12 02:57:55;;;;;;;1999.90;534.10;;;;;;;;;;4624162;28;21015;-85
2023/06/12 03:00:22;;;;;;;1999.90;530.35;;;;;;;;;;4624470;28;20938;-85
2023/06/12 03:02:55;;;;;;;1999.90;590.20;;;;;;;;;;4629562;28;20814;-84
2023/06/12 03:05:25;;;;;;;1999.90;550.53;;;;;;;;;;4626438;28;20733;-84
2023/06/12 03:07:55;;;;;;;1999.90;572.83;;;;;;;;;;4607119;28;20049;-84
2023/06/12 03:10:21;;;;;;;1999.90;577.42;;;;;;;;;;4613088;28;21004;-84
2023/06/12 03:12:48;;;;;;;1999.90;575.30;;;;;;;;;;4630070;28;20595;-84
2023/06/12 03:15:16;;;;;;;1999.90;603.42;;;;;;;;;;4614563;28;20754;-84
2023/06/12 03:17:44;;;;;;;1999.90;574.83;;;;;;;;;;4643286;28;20044;-85
2023/06/12 03:20:11;;;;;;;1999.90;506.00;;;;;;;;;;4650175;28;20048;-85
2023/06/12 03:22:39;;;;;;;1999.90;536.83;;;;;;;;;;4625181;28;21295;-84
2023/06/12 03:25:05;;;;;;;1999.90;498.38;;;;;;;;;;4620040;28;20728;-83
2023/06/12 03:27:35;;;;;;;1999.90;540.50;;;;;;;;;;4616742;28;21202;-84
2023/06/12 03:30:02;;;;;;;1999.90;516.70;;;;;;;;;;4622082;28;20036;-84
2023/06/12 03:32:29;;;;;;;1999.90;527.33;;;;;;;;;;4618552;28;21003;-84
2023/06/12 03:35:00;;;;;;;1999.90;542.22;;;;;;;;;;4623120;28;20497;-84
2023/06/12 03:37:28;;;;;;;1999.90;545.45;;;;;;;;;;4625298;28;20055;-84
2023/06/12 03:39:59;;;;;;;1999.90;535.28;;;;;;;;;;4616193;28;21232;-84
2023/06/12 03:42:26;;;;;;;1999.90;555.80;;;;;;;;;;4624769;28;20041;-84
2023/06/12 03:44:55;;;;;;;1999.90;493.00;;;;;;;;;;4637252;28;20611;-87
2023/06/12 03:47:24;;;;;;;1999.90;549.55;;;;;;;;;;4626154;28;20897;-84
2023/06/12 03:49:51;;;;;;;1999.90;482.10;;;;;;;;;;4625756;28;20059;-84
2023/06/12 03:52:18;;;;;;;1999.90;575.25;;;;;;;;;;4617145;28;20811;-84
2023/06/12 03:54:46;;;;;;;1999.90;628.33;;;;;;;;;;4618635;28;21254;-84
2023/06/12 03:57:13;;;;;;;1999.90;554.50;;;;;;;;;;4602494;28;20657;-84
2023/06/12 03:59:40;;;;;;;1999.90;546.42;;;;;;;;;;4643580;28;21302;-84
2023/06/12 04:02:06;;;;;;;1999.90;532.90;;;;;;;;;;4610605;28;20731;-84
2023/06/12 04:04:33;;;;;;;1999.90;637.03;;;;;;;;;;4618146;28;20927;-85
2023/06/12 04:07:00;;;;;;;1999.90;593.25;;;;;;;;;;4621260;28;20857;-84
2023/06/12 04:09:27;;;;;;;1999.90;573.60;;;;;;;;;;4602252;28;20394;-84
2023/06/12 04:11:54;;;;;;;1999.90;534.38;;;;;;;;;;4599961;28;21168;-84
2023/06/12 04:14:22;;;;;;;1999.90;597.97;;;;;;;;;;4611594;28;20048;-86
2023/06/12 04:16:48;;;;;;;1999.90;551.72;;;;;;;;;;4593646;28;21117;-84
2023/06/12 04:19:16;;;;;;;1999.90;734.88;;;;;;;;;;4565095;28;20486;-84
2023/06/12 04:21:45;;;;;;;1999.90;619.03;;;;;;;;;;4586427;28;20127;-84
2023/06/12 04:24:15;;;;;;;1999.90;617.45;;;;;;;;;;4608104;28;20470;-84
2023/06/12 04:26:46;;;;;;;1999.90;668.80;;;;;;;;;;4606222;28;20617;-84
2023/06/12 04:29:15;;;;;;;1999.90;674.15;;;;;;;;;;4616934;28;20459;-82
2023/06/12 04:31:42;;;;;;;1999.90;625.78;;;;;;;;;;4626045;28;20040;-83
2023/06/12 04:34:09;;;;;;;1999.90;897.80;;;;;;;;;;4610106;28;20801;-84
2023/06/12 04:36:37;;;;;;;1999.90;999.90;;;;;;;;;;4607475;28;20075;-83
2023/06/12 04:39:25;;;;;;;1999.90;999.90;;;;;;;;;;4495868;28;20705;-83
2023/06/12 04:42:26;;;;;;;1999.90;999.90;;;;;;;;;;4407850;28;20757;-83
2023/06/12 04:45:04;;;;;;;1507.80;604.40;;;;;;;;;;4879506;28;20944;-81
2023/06/12 04:47:31;;;;;;;1830.00;507.27;;;;;;;;;;4914569;28;20392;-80
2023/06/12 04:49:59;;;;;;;1244.13;302.27;;;;;;;;;;4945657;28;20151;-81
2023/06/12 04:52:26;;;;;;;1219.53;258.88;;;;;;;;;;4943358;28;20041;-80
2023/06/12 04:54:53;;;;;;;1318.30;456.65;;;;;;;;;;4944976;28;20049;-80
2023/06/12 04:57:19;;;;;;;1249.05;305.00;;;;;;;;;;4949941;28;21020;-80
2023/06/12 04:59:48;;;;;;;1316.95;314.33;;;;;;;;;;4947585;28;20044;-80
2023/06/12 05:02:15;;;;;;;1222.07;280.38;;;;;;;;;;4947895;28;20628;-83
2023/06/12 05:04:43;;;;;;;1201.07;242.88;;;;;;;;;;4944904;28;20045;-80
2023/06/12 05:07:17;;;;;;;1192.47;179.55;;;;;;;;;;4961098;28;20078;-80
2023/06/12 05:09:47;;;;;;;1174.07;172.93;;;;;;;;;;4944535;28;20055;-80
2023/06/12 05:12:14;;;;;;;1137.72;152.70;;;;;;;;;;4942719;28;20040;-81
2023/06/12 05:14:42;;;;;;;1401.90;210.23;;;;;;;;;;4940025;28;20153;-80
2023/06/12 05:17:09;;;;;;;1286.40;180.25;;;;;;;;;;4937166;28;21197;-80
2023/06/12 05:19:40;;;;;;;1182.85;167.40;;;;;;;;;;4942332;28;21133;-80
2023/06/12 05:22:07;;;;;;;1233.55;171.65;;;;;;;;;;4948688;28;21220;-80
2023/06/12 05:24:34;;;;;;;1290.40;165.93;;;;;;;;;;4939614;28;20151;-80
2023/06/12 05:27:01;;;;;;;1198.57;159.95;;;;;;;;;;4938392;28;21283;-81
2023/06/12 05:29:27;;;;;;;1290.30;178.68;;;;;;;;;;4939284;28;21062;-80
2023/06/12 05:31:55;;;;;;;1129.97;148.18;;;;;;;;;;4936844;28;20040;-80
2023/06/12 05:34:21;;;;;;;1173.25;154.27;;;;;;;;;;4941418;28;20049;-80
2023/06/12 05:36:48;;;;;;;1099.88;140.90;;;;;;;;;;4944626;28;20549;-80
2023/06/12 05:39:14;;;;;;;1104.20;141.43;;;;;;;;;;4965084;28;20055;-80
2023/06/12 05:41:42;;;;;;;1193.63;156.18;;;;;;;;;;4948519;28;20037;-81
2023/06/12 05:44:09;;;;;;;1121.97;144.05;;;;;;;;;;4963614;28;20040;-80
2023/06/12 05:46:35;;;;;;;1109.00;140.35;;;;;;;;;;4962488;28;20048;-80
2023/06/12 05:49:03;;;;;;;1102.93;140.00;;;;;;;;;;4958143;28;20036;-80
2023/06/12 05:51:31;;;;;;;1161.63;149.63;;;;;;;;;;4950794;28;20059;-80
2023/06/12 05:53:57;;;;;;;1131.22;144.38;;;;;;;;;;4962702;28;20048;-81
2023/06/12 05:56:29;;;;;;;1180.60;153.25;;;;;;;;;;4943813;28;20052;-81
2023/06/12 05:58:57;;;;;;;1159.15;154.27;;;;;;;;;;4946311;28;20085;-81
2023/06/12 06:01:25;;;;;;;1106.70;144.07;;;;;;;;;;4944534;28;20068;-80
2023/06/12 06:03:56;;;;;;;1177.65;153.57;;;;;;;;;;4943231;28;20044;-80
2023/06/12 06:06:26;;;;;;;1188.38;152.38;;;;;;;;;;4947595;28;20041;-81
2023/06/12 06:08:53;;;;;;;1163.32;150.13;;;;;;;;;;4945470;28;20039;-80
2023/06/12 06:11:20;;;;;;;1131.43;142.90;;;;;;;;;;4947241;28;20047;-80
2023/06/12 06:13:47;;;;;;;1173.68;147.05;;;;;;;;;;4942534;28;20049;-80
2023/06/12 06:16:13;;;;;;;1108.70;135.75;;;;;;;;;;4946221;28;21134;-80
2023/06/12 06:18:40;;;;;;;1131.13;139.65;;;;;;;;;;4942621;28;20044;-80
2023/06/12 06:21:07;;;;;;;1149.57;142.85;;;;;;;;;;4964129;28;20158;-81
2023/06/12 06:23:34;;;;;;;1179.50;148.45;;;;;;;;;;4961135;28;20061;-81
2023/06/12 06:26:02;;;;;;;1151.22;143.63;;;;;;;;;;4943704;28;20040;-80
2023/06/12 06:28:28;;;;;;;1173.50;145.68;;;;;;;;;;4959682;28;20541;-80
2023/06/12 06:30:55;;;;;;;1079.90;132.70;;;;;;;;;;4943495;28;20963;-81
2023/06/12 06:33:22;;;;;;;1086.40;133.07;;;;;;;;;;4944906;28;20048;-80
2023/06/12 06:35:49;;;;;;;1169.97;144.82;;;;;;;;;;4947025;28;21145;-81
2023/06/12 06:38:20;;;;;;;1099.05;134.32;;;;;;;;;;4942465;28;20997;-80
2023/06/12 06:40:48;;;;;;;1129.65;139.23;;;;;;;;;;4943240;28;20214;-80
2023/06/12 06:43:17;;;;;;;1093.88;132.70;;;;;;;;;;4946415;28;20071;-80
2023/06/12 06:45:49;;;;;;;1143.10;140.98;;;;;;;;;;4939790;28;20063;-80
2023/06/12 06:48:17;;;;;;;1118.85;136.10;;;;;;;;;;4945206;28;20040;-81
2023/06/12 06:50:44;;;;;;;1121.50;136.55;;;;;;;;;;4944794;28;20055;-80
2023/06/12 06:53:11;;;;;;;1105.07;133.73;;;;;;;;;;4944289;28;20048;-80
2023/06/12 06:55:37;;;;;;;1156.30;136.38;;;;;;;;;;4946780;28;20047;-81
2023/06/12 06:58:04;;;;;;;1068.95;128.38;;;;;;;;;;4945327;28;21110;-80
2023/06/12 07:00:32;;;;;;;1134.75;136.48;;;;;;;;;;4947865;28;20940;-80
2023/06/12 07:02:59;;;;;;;1109.70;133.07;;;;;;;;;;4968638;28;20988;-81
2023/06/12 07:05:27;;;;;;;1081.15;127.40;;;;;;;;;;4947386;28;20052;-80
2023/06/12 07:07:54;;;;;;;1095.75;130.20;;;;;;;;;;4959762;28;20064;-80
2023/06/12 07:10:30;;;;;;;1099.25;129.73;;;;;;;;;;4932488;28;20052;-80
2023/06/12 07:12:57;;;;;;;1079.25;128.07;;;;;;;;;;4945563;28;20043;-80
2023/06/12 07:15:33;;;;;;;1089.82;128.48;;;;;;;;;;4945157;28;20059;-80
2023/06/12 07:18:00;;;;;;;1095.28;129.68;;;;;;;;;;4946442;28;20036;-80
2023/06/12 07:20:26;;;;;;;1119.53;133.23;;;;;;;;;;4944848;28;20041;-81
2023/06/12 07:22:53;;;;;;;1056.20;124.75;;;;;;;;;;4952615;28;20047;-80
2023/06/12 07:25:19;;;;;;;1073.68;125.30;;;;;;;;;;4944791;28;20056;-80
2023/06/12 07:27:46;;;;;;;1113.80;131.27;;;;;;;;;;4943995;28;20365;-81
2023/06/12 07:30:14;;;;;;;1083.68;127.85;;;;;;;;;;4948991;28;20036;-80
2023/06/12 07:32:41;;;;;;;1139.55;134.75;;;;;;;;;;4945405;28;20044;-81
2023/06/12 07:35:07;;;;;;;1085.22;126.97;;;;;;;;;;4943853;28;20999;-80
2023/06/12 07:37:35;;;;;;;1066.03;124.82;;;;;;;;;;4964899;28;20040;-81
2023/06/12 07:40:07;;;;;;;1077.72;125.60;;;;;;;;;;4945250;28;20055;-80
2023/06/12 07:42:35;;;;;;;1099.20;128.90;;;;;;;;;;4946530;28;21074;-80
2023/06/12 07:45:02;;;;;;;1085.43;128.00;;;;;;;;;;4948812;28;20036;-80
2023/06/12 07:47:29;;;;;;;1118.72;131.02;;;;;;;;;;4944884;28;20931;-80
2023/06/12 07:49:56;;;;;;;1096.18;124.35;;;;;;;;;;4944264;28;20072;-80
2023/06/12 07:52:23;;;;;;;1106.63;127.95;;;;;;;;;;4944631;28;20237;-80
2023/06/12 07:54:50;;;;;;;1089.93;124.85;;;;;;;;;;4945164;28;21015;-80
2023/06/12 07:57:18;;;;;;;1102.30;127.18;;;;;;;;;;4947497;28;20147;-80
2023/06/12 07:59:45;;;;;;;1139.93;130.75;;;;;;;;;;4948497;28;20158;-80
2023/06/12 08:02:14;;;;;;;1077.57;122.32;;;;;;;;;;4950593;28;20046;-80
2023/06/12 08:04:42;;;;;;;1086.72;122.93;;;;;;;;;;4945180;28;20051;-80
2023/06/12 08:07:12;;;;;;;1136.25;130.35;;;;;;;;;;4950331;28;20097;-80
2023/06/12 08:09:40;;;;;;;1107.28;128.48;;;;;;;;;;4962135;28;20039;-80
2023/06/12 08:12:10;;;;;;;1073.82;123.63;;;;;;;;;;4952957;28;21111;-80
2023/06/12 08:14:38;;;;;;;1196.68;142.40;;;;;;;;;;4948252;28;20158;-80
2023/06/12 08:17:05;;;;;;;1095.90;127.60;;;;;;;;;;4949252;28;20155;-80
2023/06/12 08:19:34;;;;;;;1033.95;118.90;;;;;;;;;;4953288;28;20132;-80
2023/06/12 08:22:01;;;;;;;1018.72;118.28;;;;;;;;;;4971009;28;20097;-80
2023/06/12 08:24:30;;;;;;;1054.60;120.18;;;;;;;;;;4964104;28;20068;-81
2023/06/12 08:26:58;;;;;;;1062.03;121.97;;;;;;;;;;4968820;28;20060;-80
2023/06/12 08:29:25;;;;;;;1044.28;120.82;;;;;;;;;;4948936;28;20105;-80
2023/06/12 08:31:53;;;;;;;1031.22;118.32;;;;;;;;;;4947468;28;20051;-80
2023/06/12 08:34:20;;;;;;;1072.28;123.63;;;;;;;;;;4966622;28;20978;-80
2023/06/12 08:36:47;;;;;;;1029.45;117.85;;;;;;;;;;4947578;28;20147;-80
2023/06/12 08:39:13;;;;;;;1043.65;120.68;;;;;;;;;;4969005;28;21243;-80
2023/06/12 08:42:02;;;;;;;1133.90;132.70;;;;;;;;;;4947848;28;20052;-80
2023/06/12 08:44:31;;;;;;;1078.72;125.72;;;;;;;;;;4965281;28;21145;-80
2023/06/12 08:47:00;;;;;;;1008.03;115.07;;;;;;;;;;4947681;28;20059;-80
2023/06/12 08:49:26;;;;;;;1018.70;116.63;;;;;;;;;;4967904;28;20041;-80
2023/06/12 08:51:53;;;;;;;1022.17;116.95;;;;;;;;;;4965002;28;20584;-80
2023/06/12 08:54:20;;;;;;;1045.97;119.35;;;;;;;;;;4969835;28;21297;-80
2023/06/12 08:56:46;;;;;;;1050.15;121.13;;;;;;;;;;4969743;28;20051;-80
2023/06/12 08:59:14;;;;;;;1015.50;115.72;;;;;;;;;;4966357;28;21091;-80
2023/06/12 09:01:41;;;;;;;1061.20;121.95;;;;;;;;;;4967826;28;21253;-80
2023/06/12 09:04:10;;;;;;;1008.00;115.38;;;;;;;;;;4970237;28;20860;-80
2023/06/12 09:06:37;;;;;;;1023.75;116.20;;;;;;;;;;4965998;28;20036;-80
2023/06/12 09:09:05;;;;;;;1218.22;135.50;;;;;;;;;;4967946;28;20149;-80
2023/06/12 09:11:34;;;;;;;1055.47;121.00;;;;;;;;;;4967410;28;20051;-81
2023/06/12 09:14:01;;;;;;;1020.25;116.85;;;;;;;;;;4963325;28;20040;-80
2023/06/12 09:16:27;;;;;;;1064.80;121.35;;;;;;;;;;4964802;28;20995;-80
2023/06/12 09:18:55;;;;;;;1037.70;118.38;;;;;;;;;;4968289;28;20195;-80
2023/06/12 09:21:22;;;;;;;1038.95;117.28;;;;;;;;;;4967246;28;21022;-80
2023/06/12 09:23:52;;;;;;;1105.20;126.45;;;;;;;;;;4967435;28;20102;-80
2023/06/12 09:26:21;;;;;;;1066.18;120.78;;;;;;;;;;4962769;28;20049;-80
2023/06/12 09:28:52;;;;;;;1034.47;117.60;;;;;;;;;;4963371;28;20062;-80
2023/06/12 09:31:18;;;;;;;1057.50;120.35;;;;;;;;;;4964044;28;21217;-80
2023/06/12 09:33:45;;;;;;;1073.88;123.32;;;;;;;;;;4968936;28;20037;-80
2023/06/12 09:36:12;;;;;;;1038.82;119.38;;;;;;;;;;4968923;28;20036;-80
2023/06/12 09:38:39;;;;;;;1137.45;131.98;;;;;;;;;;4969218;28;20204;-80
2023/06/12 09:41:07;;;;;;;1052.30;120.95;;;;;;;;;;4964391;28;20150;-81
2023/06/12 09:43:34;;;;;;;1052.78;121.47;;;;;;;;;;4968727;28;20047;-80
2023/06/12 09:46:01;;;;;;;1068.28;122.60;;;;;;;;;;4947056;28;20976;-79
2023/06/12 09:48:46;;;;;;;1085.35;126.15;;;;;;;;;;4967179;28;21248;-80
2023/06/12 09:51:32;;;;;;;1059.90;122.10;;;;;;;;;;4967663;28;20035;-80
2023/06/12 09:54:00;;;;;;;1072.43;123.93;;;;;;;;;;4949690;28;21224;-80
2023/06/12 09:56:27;;;;;;;1107.22;127.93;;;;;;;;;;4963741;28;20040;-80
2023/06/12 09:58:55;;;;;;;1067.38;122.70;;;;;;;;;;4963957;28;20943;-80
2023/06/12 10:01:25;;;;;;;1063.55;122.57;;;;;;;;;;4964118;28;20056;-80
2023/06/12 10:03:54;;;;;;;1096.95;126.57;;;;;;;;;;4967225;28;20044;-80
2023/06/12 10:06:21;;;;;;;1070.40;122.95;;;;;;;;;;4968585;28;20062;-80
2023/06/12 10:08:50;;;;;;;1111.05;128.82;;;;;;;;;;4963881;28;21011;-80
2023/06/12 10:11:17;;;;;;;1110.72;127.05;;;;;;;;;;4967270;28;20995;-80
2023/06/12 10:13:44;;;;;;;1103.07;126.47;;;;;;;;;;4963807;28;21113;-80
2023/06/12 10:16:11;;;;;;;1073.88;123.88;;;;;;;;;;4962067;28;20185;-80
2023/06/12 10:18:38;;;;;;;1105.25;126.70;;;;;;;;;;4965636;28;20199;-80
2023/06/12 10:21:05;;;;;;;1092.05;126.45;;;;;;;;;;4963008;28;20040;-80
2023/06/12 10:23:33;;;;;;;1103.70;128.75;;;;;;;;;;4962612;28;21032;-80
2023/06/12 10:26:01;;;;;;;1066.40;123.20;;;;;;;;;;4959945;28;21197;-80
2023/06/12 10:28:28;;;;;;;1085.07;125.88;;;;;;;;;;4962117;28;20051;-80
2023/06/12 10:31:13;;;;;;;1075.03;123.80;;;;;;;;;;4963498;28;20036;-80
2023/06/12 10:33:59;;;;;;;1088.10;126.63;;;;;;;;;;4960206;28;20037;-80
2023/06/12 10:36:35;;;;;;;1108.68;128.57;;;;;;;;;;4961828;28;20055;-80
2023/06/12 10:39:04;;;;;;;1111.53;129.52;;;;;;;;;;4964598;28;20055;-80
2023/06/12 10:41:33;;;;;;;1083.70;125.13;;;;;;;;;;4961608;28;20197;-81
2023/06/12 10:44:02;;;;;;;1064.88;122.95;;;;;;;;;;4960021;28;20154;-80
2023/06/12 10:46:44;;;;;;;1097.93;126.65;;;;;;;;;;4960929;28;21127;-80
2023/06/12 10:49:12;;;;;;;1125.93;127.90;;;;;;;;;;4945238;28;20836;-80
2023/06/12 10:51:46;;;;;;;1087.95;126.20;;;;;;;;;;4961726;28;20155;-80
2023/06/12 10:54:15;;;;;;;1135.35;136.63;;;;;;;;;;4962019;28;21098;-80
2023/06/12 10:56:58;;;;;;;1257.03;152.88;;;;;;;;;;4957502;28;20059;-80
2023/06/12 10:59:34;;;;;;;1050.95;121.38;;;;;;;;;;4964370;28;21074;-80
2023/06/12 11:02:02;;;;;;;1038.43;119.78;;;;;;;;;;4962173;28;20056;-80
2023/06/12 11:04:37;;;;;;;1133.75;130.82;;;;;;;;;;4965835;28;20047;-80
2023/06/12 11:07:04;;;;;;;1066.35;123.38;;;;;;;;;;4959298;28;20049;-80
2023/06/12 11:09:38;;;;;;;1083.47;125.78;;;;;;;;;;4962644;28;20041;-80
2023/06/12 11:12:06;;;;;;;1077.80;124.28;;;;;;;;;;4960860;28;21236;-80
2023/06/12 11:14:32;;;;;;;1120.32;131.73;;;;;;;;;;4960345;28;20543;-80
2023/06/12 11:16:59;;;;;;;1092.50;125.13;;;;;;;;;;4965204;28;20116;-80
2023/06/12 11:19:27;;;;;;;1071.68;124.00;;;;;;;;;;4964979;28;20118;-80
2023/06/12 11:21:55;;;;;;;1071.68;122.78;;;;;;;;;;4959699;28;20037;-80
2023/06/12 11:24:22;;;;;;;1067.22;123.10;;;;;;;;;;4963308;28;21320;-80
2023/06/12 11:26:50;;;;;;;1298.55;154.40;;;;;;;;;;4961824;28;20052;-80
2023/06/12 11:29:18;;;;;;;1109.72;130.35;;;;;;;;;;4963259;28;20146;-80
2023/06/12 11:31:50;;;;;;;1086.38;126.18;;;;;;;;;;4959698;28;20225;-81
2023/06/12 11:34:17;;;;;;;1091.50;126.38;;;;;;;;;;4962947;28;20098;-81
2023/06/12 11:36:44;;;;;;;1086.40;124.15;;;;;;;;;;4963679;28;21039;-80
2023/06/12 11:39:17;;;;;;;1207.72;141.43;;;;;;;;;;4962083;28;20040;-80
2023/06/12 11:41:48;;;;;;;1246.88;148.50;;;;;;;;;;4959609;28;20040;-81
2023/06/12 11:44:15;;;;;;;1063.65;123.80;;;;;;;;;;4958211;28;20048;-81
2023/06/12 11:46:42;;;;;;;1048.20;121.35;;;;;;;;;;4942551;28;20051;-81
2023/06/12 11:49:09;;;;;;;1098.45;127.38;;;;;;;;;;4962639;28;20047;-81
2023/06/12 11:51:39;;;;;;;1070.00;123.63;;;;;;;;;;4965370;28;20032;-81
2023/06/12 11:54:07;;;;;;;1093.80;127.03;;;;;;;;;;4958782;28;20036;-81
2023/06/12 11:56:33;;;;;;;1162.18;135.65;;;;;;;;;;4959312;28;20148;-81
2023/06/12 11:59:03;;;;;;;1146.03;133.80;;;;;;;;;;4959736;28;20103;-81
2023/06/12 12:01:36;;;;;;;1094.10;127.28;;;;;;;;;;4959148;28;20161;-80
2023/06/12 12:04:04;;;;;;;;;;;;;;;;;;4959287;28;20041;-81
2023/06/12 12:06:31;;;;;;;1098.45;128.13;;;;;;;;;;4961902;28;19924;-80
2023/06/12 12:08:58;;;;;;;1127.53;131.85;;;;;;;;;;4963502;28;20102;-81
2023/06/12 12:11:32;;;;;;;1103.65;129.82;;;;;;;;;;4958862;28;20048;-81
2023/06/12 12:14:03;;;;;;;1084.47;124.57;;;;;;;;;;4959630;28;21052;-80
2023/06/12 12:16:40;;;;;;;1163.22;136.45;;;;;;;;;;4958594;28;21164;-81
2023/06/12 12:19:16;;;;;;;1094.85;126.53;;;;;;;;;;4960955;28;20845;-80
2023/06/12 12:21:43;;;;;;;1128.55;131.40;;;;;;;;;;4961687;28;20390;-81
2023/06/12 12:24:10;;;;;;;1109.22;129.52;;;;;;;;;;4958503;28;20029;-81
2023/06/12 12:26:41;;;;;;;1102.75;128.35;;;;;;;;;;4955830;28;20047;-81
2023/06/12 12:29:10;;;;;;;1112.88;129.80;;;;;;;;;;4941657;28;20036;-81
2023/06/12 12:31:37;;;;;;;1099.32;128.52;;;;;;;;;;4957234;28;20990;-81
2023/06/12 12:34:03;;;;;;;1110.85;126.03;;;;;;;;;;4958282;28;20037;-81
2023/06/12 12:36:30;;;;;;;1122.45;131.20;;;;;;;;;;4961754;28;20040;-81
2023/06/12 12:38:56;;;;;;;1137.53;134.30;;;;;;;;;;4959021;28;20210;-81
2023/06/12 12:41:23;;;;;;;1061.25;121.18;;;;;;;;;;4960926;28;20044;-81
2023/06/12 12:43:50;;;;;;;1094.28;127.13;;;;;;;;;;4959570;28;20032;-81
2023/06/12 12:46:16;;;;;;;1232.90;148.73;;;;;;;;;;4946852;28;20039;-81
2023/06/12 12:48:43;;;;;;;1452.55;184.20;;;;;;;;;;4931439;28;20037;-81
2023/06/12 12:51:09;;;;;;;1235.40;148.95;;;;;;;;;;4944024;28;20950;-81
2023/06/12 12:53:37;;;;;;;1391.05;174.65;;;;;;;;;;4937670;28;21001;-81
2023/06/12 12:56:03;;;;;;;1140.53;134.70;;;;;;;;;;4940914;28;20942;-81
2023/06/12 12:58:30;;;;;;;1182.10;141.25;;;;;;;;;;4938646;28;20106;-81
2023/06/12 13:00:59;;;;;;;1292.28;158.07;;;;;;;;;;4936807;28;20482;-81
2023/06/12 13:03:29;;;;;;;1286.10;157.50;;;;;;;;;;4939623;28;20040;-81
2023/06/12 13:05:56;;;;;;;1381.32;171.73;;;;;;;;;;4933932;28;20036;-81
2023/06/12 13:08:23;;;;;;;1230.70;148.48;;;;;;;;;;4941845;28;20036;-80
2023/06/12 13:10:49;;;;;;;1453.85;183.18;;;;;;;;;;4934480;28;20040;-81
2023/06/12 13:13:16;;;;;;;1232.25;149.98;;;;;;;;;;4942299;28;20135;-81
2023/06/12 13:15:43;;;;;;;1469.63;185.77;;;;;;;;;;4940296;28;20036;-81
2023/06/12 13:18:09;;;;;;;1235.60;148.77;;;;;;;;;;4950082;28;20044;-81
2023/06/12 13:20:36;;;;;;;1320.47;162.82;;;;;;;;;;4942456;28;20039;-81
2023/06/12 13:23:02;;;;;;;1219.30;145.55;;;;;;;;;;4934413;28;21034;-81
2023/06/12 13:25:29;;;;;;;1269.20;155.13;;;;;;;;;;4941988;28;20032;-81
2023/06/12 13:27:56;;;;;;;1196.25;142.65;;;;;;;;;;4943873;28;20126;-81
2023/06/12 13:30:22;;;;;;;1229.35;145.25;;;;;;;;;;4929651;28;21081;-81
2023/06/12 13:32:52;;;;;;;1334.40;163.07;;;;;;;;;;4927481;28;20048;-81
2023/06/12 13:35:18;;;;;;;1253.50;152.52;;;;;;;;;;4925708;28;20041;-81
2023/06/12 13:37:45;;;;;;;1249.57;150.93;;;;;;;;;;4937528;28;20044;-81
2023/06/12 13:40:14;;;;;;;1372.40;171.52;;;;;;;;;;4942648;28;21018;-81
2023/06/12 13:42:43;;;;;;;1261.75;153.77;;;;;;;;;;4945609;28;21197;-81
2023/06/12 13:45:10;;;;;;;1415.15;178.63;;;;;;;;;;4942417;28;20980;-81
2023/06/12 13:47:36;;;;;;;1198.43;144.63;;;;;;;;;;4941921;28;20044;-81
2023/06/12 13:50:07;;;;;;;1256.95;153.27;;;;;;;;;;4938453;28;20086;-81
2023/06/12 13:52:34;;;;;;;1265.35;153.15;;;;;;;;;;4941944;28;20048;-81
2023/06/12 13:55:00;;;;;;;1168.93;138.70;;;;;;;;;;4923634;28;20551;-81